Cosco Venice — VRME4 — position and weather

sailwx.info

Track history (hours):
 
Tides and Currents Weather Stations Pressure Air Temp Water Temp Dewpoint Dewpoint Depression Visibility Wind Speed Wind Dir Waves Ship Positions

Cosco Venice

Last reported at 2018-Jun-24 22:27 UTC. Time now 2018-Jun-24 22:36 UTC.
Position N 27°54' W 118°23'.

Length 261 m; draft 11.8 m.

Type: Ship (hazmat cat D). MMSI: 477004700.

Date/timePositionNaut miles runAvg speedWind from/ knotsBaromVisibWave heightAir tempDewpointWater temp
2018-Jun-24 22:27N 27°54' W 118°23'2216.1
2018-Jun-24 21:06N 28°08' W 118°42'516.4
2018-Jun-24 20:49N 28°11' W 118°46'21616.8
2018-Jun-24 07:59N 30°28' W 121°57'14916.7
2018-Jun-23 23:02N 31°50' W 124°23'115.9
2018-Jun-23 23:00N 31°50' W 124°23'11016.8
2018-Jun-23 16:27N 32°49' W 126°14'917.1
2018-Jun-23 15:57N 32°53' W 126°22'3216.7
2018-Jun-23 14:04N 33°09' W 126°55'116.5
2018-Jun-23 14:00N 33°10' W 126°56'16616.5
2018-Jun-23 03:56N 34°34' W 129°48'716.3
2018-Jun-23 03:30N 34°37' W 129°56'816.6
2018-Jun-23 03:00N 34°41' W 130°05'816.6
2018-Jun-23 02:30N 34°45' W 130°13'816.8
2018-Jun-23 02:00N 34°49' W 130°22'916.9
2018-Jun-23 01:29N 34°54' W 130°31'1116.7
2018-Jun-23 00:51N 34°59' W 130°43'616.6
2018-Jun-23 00:30N 35°02' W 130°49'816.8
2018-Jun-23 00:00N 35°06' W 130°58'816.8
2018-Jun-22 23:30N 35°10' W 131°07'816.6
2018-Jun-22 23:00N 35°13' W 131°16'1016.6
2018-Jun-22 22:25N 35°18' W 131°26'816.5
2018-Jun-22 21:57N 35°22' W 131°34'  
Track history (hours):
 
Tides and Currents Weather Stations Pressure Air Temp Water Temp Dewpoint Dewpoint Depression Visibility Wind Speed Wind Dir Waves Ship Positions

Cosco Venice

Last reported at 2018-Jun-24 22:27 UTC. Time now 2018-Jun-24 22:36 UTC.
Position N 27°54' W 118°23'.

Length 261 m; draft 11.8 m.

Type: Ship (hazmat cat D). MMSI: 477004700.

Date/timePositionNaut miles runAvg speedWind from/ knotsBaromVisibWave heightAir tempDewpointWater temp
2018-Jun-24 22:27N 27°54' W 118°23'2216.1
2018-Jun-24 21:06N 28°08' W 118°42'516.4
2018-Jun-24 20:49N 28°11' W 118°46'21616.8
2018-Jun-24 07:59N 30°28' W 121°57'14916.7
2018-Jun-23 23:02N 31°50' W 124°23'115.9
2018-Jun-23 23:00N 31°50' W 124°23'11016.8
2018-Jun-23 16:27N 32°49' W 126°14'917.1
2018-Jun-23 15:57N 32°53' W 126°22'3216.7
2018-Jun-23 14:04N 33°09' W 126°55'116.5
2018-Jun-23 14:00N 33°10' W 126°56'16616.5
2018-Jun-23 03:56N 34°34' W 129°48'716.3
2018-Jun-23 03:30N 34°37' W 129°56'816.6
2018-Jun-23 03:00N 34°41' W 130°05'816.6
2018-Jun-23 02:30N 34°45' W 130°13'816.8
2018-Jun-23 02:00N 34°49' W 130°22'916.9
2018-Jun-23 01:29N 34°54' W 130°31'1116.7
2018-Jun-23 00:51N 34°59' W 130°43'616.6
2018-Jun-23 00:30N 35°02' W 130°49'816.8
2018-Jun-23 00:00N 35°06' W 130°58'816.8
2018-Jun-22 23:30N 35°10' W 131°07'816.6
2018-Jun-22 23:00N 35°13' W 131°16'1016.6
2018-Jun-22 22:25N 35°18' W 131°26'816.5
2018-Jun-22 21:57N 35°22' W 131°34'  

Dump ship's entire track history